Etusivu
METAR-TAF:

METAR-TAF

Lentoasemat :

Damaskos, Syyria

Damaskoksen kansainvälinen lentoasema

Leveyspiiri: 33-25N, Pituuspiiri: 036-31E, korkeus merenpinnasta: 608 m

Tämänhetkinen sää

Tämä raportti tehtiin 34 minuuttia sitten, kello 08.00 UTC
Tuuli 2 kn lännestä/lounaasta
Lämpötila 32°C
Kosteus 32%
Ilmanpaine 1009 hPa
Näkyvyys 10 km tai enemmän
ei pilviä alle 1500 m:ssä eikä cumulonimbus-pilviä

METAR: OSDI 210800Z 25002KT CAVOK 32/13 Q1009

Aika: 11:34 (08:34 UTC)

Sääennuste

Tämä raportti tehtiin 3 tuntia ja 4 minuuttia sitten, kello 05.30 UTC
Ennuste voimassa 21. päivästä klo 06 UTC - 22. päivään klo 12 UTC
Tuuli 10 kn lounaasta
Näkyvyys 10 km tai enemmän
ei pilviä alle 1500 m:ssä eikä cumulonimbus-pilviä
Ajoittain
21. päivästä klo 12 UTC - 21. päivään klo 18 UTC
Tuuli 15 kn lännestä/lounaasta puuskistuen 25 kn:hen
Näkyvyys 10 km tai enemmän
Muutamia pilviä 3000 ft:n korkeudessa

TAF: OSDI 210530Z 2106/2212 22010KT CAVOK TEMPO 2112/2118 24015G25KT 9999 FEW030

Säähavainnot ja -ennusteet yli 4000 lentoasemalta (METAR- ja TAF-raportit).

Käytössä olevat sääasemat on merkitty karttaan keltaisilla ja punaisilla pisteillä.

Aseta hiiri pisteen päälle nähdäksesi sääaseman nimen.

Klikkaa sitten nähdäksesi säähavainnot ja -ennusteet.

Kartan vaihtaminen: klikkaa mustalla rastilla varustettuja vihreitä pisteitä, niin voit zoomata sisään; viivalla varustettua vihreää pistettä, niin voit zoomata ulos tai vihreitä nuolia, niin pääset viereisille kartoille.


METAR-TAF: